Sonoma County-Central Daily Obs

29 Stations

Daily Data | America/Los_Angeles
as of 9/25/22 10:37 PM PDT
Station Date Daily Max Temp (°F) Time of Max Temp Daily Min Temp (°F) Time of Min Temp Dew Pt (°F) Max RH (%) Min RH (%) Wind Spd (mph) Daily Max Wind (mph) Time of Max Wind Max Wind Dir (°) Daily Rain (In) Seasonal Rainfall (In) Daily ETo (in) Daily Solar Rad (Cal/cm2) Powdery Mildew Stress (pts)
Healdsburg-South (Sodini) 9/24/22 95.5   2.1 1544 50.7   0.4 0717 50.4   3.0 98   0 12   8 1.2 10.1   1.0 1729 SW | 232 0.00 1.25 - - 80   10
Windsor-NW (Ranch 8) 9/24/22 97.1   2.7 1526 54.8   0.4 0706 52.3   2.3 84   2 16   7 1.3 15.3   3.2 1655 WSW | 244 0.00 1.31 0.175   0.011 501   9 80   10
Windsor-East (Ranch 16) 9/24/22 96.8   4.0 1513 48.9   1.2 0652 49.4   3.4 98   0 11   10 1.3 12.2   1.4 1616 SW | 230 0.00 0.93 0.170   0.002 496   5 70   10
Mark West-North (Ranch 14) 9/24/22 94.7   3.1 1435 49.5   0.7 0643 49.0   2.8 97   1 10   13 1.0 9.3   0.8 1659 SSW | 207 0.00 0.78 0.162   0.001 491   7 60   0
Windsor-SE (Silk Rd) 9/24/22 93.1   2.2 1522 48.2   0.8 0701 50.2   2.7 99   0 15   7 1.2 11.8   0.7 1705 WSW | 252 0.00 1.25 0.169   0.006 505   7 80   10
Fulton-NW (Ranch 5) 9/24/22 93.2   3.2 1446 48.5   0.2 0718 50.6   2.6 99   0 14   12 1.3 12.1   0.4 1536 WSW | 239 0.00 0.82 0.168   0.002 483   7 80   10
Windsor-South (Laughlin Rd) 9/24/22 95.0   3.3 1441 50.7   0.4 0607 51.2   2.6 97   3 14   9 - - - - 0.00 1.23 - - 60   10
Fulton-SE (Barnes Rd) 9/24/22 94.0   3.3 1518 49.1   0.9 0639 51.2   2.1 96   1 16   11 1.6 12.0   0.0 1441 W | 267 0.00 0.69 - - 40   10
Fulton-SW (Ranch 21) 9/24/22 93.0   2.7 1359 50.1   0.9 0711 51.3   1.8 97   1 14   11 2.2 14.1   0.0 1512 WSW | 238 0.00 0.75 0.180   0.003 504   8 80   10
Santa Rosa-NW (Goldfields) 9/24/22 96.2   4.0 1455 50.5   0.2 0713 51.5   2.0 - - 1.8 12.3   0.3 1600 SW | 215 0.00 0.89 0.163   0.004 460   7 30   10
NW Santa Rosa (Piner Road) 9/24/22 94.1   2.5 1401 47.7   0.5 0647 51.7   1.9 99   0 17   9 1.4 12.4   0.6 1449 SW | 231 0.00 0.86 - - 40   10
River Rd South (Denner Ranch) 9/24/22 94.4   4.4 1447 48.5   0.2 0630 50.9   2.3 100   0 13   11 2.2 14.5   1.1 1530 SSW | 201 - - - - 80   10
West Santa Rosa (Hawk's Roost) 9/24/22 93.8   3.0 1415 48.5   0.7 0651 51.6   1.6 100   0 15   10 1.3 11.8   0.1 1443 WSW | 250 0.00 1.04 0.185   0.008 548   12 80   10
Guerneville Rd (Prokopakis) 9/24/22 95.4   4.4 1612 47.6   1.2 0714 52.3   1.7 99   0 15   10 - - - - 0.00 0.84 - - 80   10
Guerneville Rd West (Balletto) 9/24/22 92.5   3.3 1359 47.4   0.5 0658 52.3   1.8 99   0 18   9 1.6 12.8   1.6 1516 SW | 225 0.00 0.74 - - 80   10
Guerneville Rd East (Rich Ranch) 9/24/22 94.8   3.7 1414 47.4   0.9 0649 50.5   2.4 98   1 15   9 - - - - - - - - 80   10
Occidental Rd (Sebastopol) 9/24/22 93.7   4.5 1405 48.4   0.4 0714 59.2   2.1 100   0 32   20 1.6 13.2   4.6 1451 SW | 231 0.00 1.17 - - 80   10
Lower Westside Rd (Ranch 12) 9/24/22 94.1   1.2 1411 48.4   0.7 0723 50.0   3.7 99   1 12   11 1.1 12.5   2.2 1646 W | 263 0.00 1.30 0.167   0.009 490   8 30   10
Guerneville (Laughlin Rd) 9/24/22 92.3   5.4 1334 47.3   3.2 0712 53.1   2.7 99   0 18   13 0.9 11.4   0.1 1459 S | 185 0.00 2.32 - - 80   10
Korbel (Winery) 9/24/22 91.7   3.4 1333 49.7   1.4 0549 53.3   1.8 100   0 15   11 0.8 11.7   1.9 1358 SE | 143 0.02 1.47 - - 60   10
Forestville (Shone Farms) 9/24/22 93.8   2.8 1456 51.4   0.9 0555 51.7   2.6 95   1 13   15 1.3 12.4   1.6 1704 W | 260 0.00 1.46 0.173   0.006 523   7 60   10
Forestville-NE (Ranch 30) 9/24/22 93.7   2.1 1451 50.0   0.2 0728 52.8   2.4 98   0 15   15 1.3 12.5   0.5 1630 WNW | 303 0.00 1.33 0.174   0.007 516   10 60   10
Green Valley Vineyard 9/24/22 90.8   2.6 1549 51.1   0.0 0627 50.2   3.0 96   3 15   11 1.6 11.8   3.5 1736 WNW | 289 0.00 1.36 0.141   0.001 416   8 20   10
Graton-West (Dutton Ranch) 9/24/22 93.7   3.2 1405 47.5   0.9 0623 52.1   2.5 100   0 15   9 1.1 9.8   0.0 1422 SSE | 166 0.00 1.50 - - 60   10
Graton-South (Mill Station Rd) 9/24/22 89.9   5.0 1316 46.7   0.9 0646 52.4   0.6 99   0 22   11 1.6 11.1   1.2 1719 SW | 218 0.00 1.16 - - 80   10
Occidental (Horseshoe Bend) 9/24/22 89.1   3.1 1542 52.8   2.8 0059 51.7   2.3 99   7 16   13 - - - - 0.01 1.15 - - 80   20
Sexton Valley (Jacqueline's Blk) 9/24/22 91.2   4.7 1305 48.4   0.2 0717 54.4   0.4 99   0 28   8 1.1 12.7   2.4 1534 WNW | 288 0.00 1.30 - - 70   10
Sebastopol Hills (Burnside Rd) 9/24/22 87.6   5.3 1252 53.3   1.7 0057 54.3   1.1 99   6 29   10 2.7 12.1   0.3 1631 SSW | 210 0.00 1.40 - - 40   10
Seaview/Fort Ross (Hirsch) 9/24/22 82.5   2.3 1229 69.7   10.9 0049 45.0   4.1 40   35 26   0 2.7 7.9   0.4 0848 SE | 125 0.00 3.05 0.184   0.020 525   5 40   20
Max   97.1 - 69.7 - 59.2 100 32 2.7 15.3 - - 0.02 3.05 0.185 548 -
Avg   - - - - 51.6 - - 1.5 - - - - - - - -
Min   82.5 - 46.7 - 45.0 40 10 0.8 7.9 - - 0.00 0.69 0.141 416 -